San Marcos, California
Current Conditions -  °F | °C
As of 10:53 AM on Monday 20 Oct 2014 (Local Time) from KCRQ Reporting Station
Overcast Overcast  
Wind Chill: 70°   Ceiling: 2000
Heat Index: 70°   Visibility: 10mi
Dew Point: 60°   Wind: 0mph
Humidity: 71%   Direction: NA
Pressure: 29.95"   Gusts: NA
Location:  33.14°N, 117.15°W
Report Text: KCRQ 201753Z 00000KT 10SM OVC020 21/16 A2995 RMK AO2 SLP138 T02110156 10211 20189 51010
Loading
Personal Weather Stations






























Interactive Weather Map New forecast layout! Learn more

10-Day Weather Forecast

Advertisements
Track Severe Weather on mobile